Thomas G. Thompson — KTDQ — position and weather

sailwx.info

Track history (hours):
 
Tides and Currents Weather Stations Pressure Air Temp Water Temp Dewpoint Dewpoint Depression Visibility Wind Speed Wind Dir Waves Ship Positions

Oceanographic research ship Thomas G. Thompson (USA)

Ship's website: http://www.ocean.washington.edu/vessels/TGT/tgt.html

Detailed information on ship capabilities available from University of Delaware's Ocean Information Center.

Owner: UNIVERSITY OF WASHINGTON, SEATTLE, WA. More information available from US FCC via Universal Licensing System and Coast Guard Vessel Documentation Center.

Last reported at 2015-Jan-13 17:33 UTC. Time now 2015-Feb-01 16:44 UTC.
Position N 47°39' W 122°20'.
Warning: this ship's position is 18 days out of date.

Type: Other ship. MMSI: 366345000.

Date/timePositionNaut miles runAvg speedWind from/ knotsBaromVisibWave heightAir tempDewpointWater temp
2015-Jan-13 17:33N 47°39' W 122°20'3 2.7
2015-Jan-13 16:33N 47°40' W 122°24'2 1.9
2015-Jan-13 15:33N 47°41' W 122°25'1 1.4
2015-Jan-13 14:33N 47°43' W 122°27'9 9.4
2015-Jan-13 13:33N 47°52' W 122°29'1110.2
2015-Jan-13 12:29N 48°01' W 122°38'9 9.5
2015-Jan-13 11:32N 48°09' W 122°44'9 8.9
2015-Jan-13 10:32N 48°12' W 122°57'9 9.5
2015-Jan-13 09:32N 48°12' W 123°11'10 9.6
2015-Jan-13 08:32N 48°13' W 123°26'9 9.4
2015-Jan-13 07:33N 48°14' W 123°39'10 9.7
2015-Jan-13 06:33N 48°14' W 123°54'1010.4
2015-Jan-13 05:33N 48°18' W 124°08'1010.3
2015-Jan-13 04:33N 48°22' W 124°23'9 8.9
2015-Jan-13 03:33N 48°26' W 124°35'8 8.4
2015-Jan-13 02:33N 48°29' W 124°46'8 8.0
2015-Jan-13 01:33N 48°29' W 124°59'9 8.4
2015-Jan-13 00:29N 48°28' W 125°12'8 8.5
2015-Jan-12 23:32N 48°28' W 125°24'10 8.4
2015-Jan-12 22:24N 48°27' W 125°38'7 8.4
2015-Jan-12 21:33N 48°26' W 125°49'12 8.9
2015-Jan-12 20:12N 48°25' W 126°07'  
Track history (hours):
 
Tides and Currents Weather Stations Pressure Air Temp Water Temp Dewpoint Dewpoint Depression Visibility Wind Speed Wind Dir Waves Ship Positions

Oceanographic research ship Thomas G. Thompson (USA)

Ship's website: http://www.ocean.washington.edu/vessels/TGT/tgt.html

Detailed information on ship capabilities available from University of Delaware's Ocean Information Center.

Owner: UNIVERSITY OF WASHINGTON, SEATTLE, WA. More information available from US FCC via Universal Licensing System and Coast Guard Vessel Documentation Center.

Last reported at 2015-Jan-13 17:33 UTC. Time now 2015-Feb-01 16:44 UTC.
Position N 47°39' W 122°20'.
Warning: this ship's position is 18 days out of date.

Type: Other ship. MMSI: 366345000.

Date/timePositionNaut miles runAvg speedWind from/ knotsBaromVisibWave heightAir tempDewpointWater temp
2015-Jan-13 17:33N 47°39' W 122°20'3 2.7
2015-Jan-13 16:33N 47°40' W 122°24'2 1.9
2015-Jan-13 15:33N 47°41' W 122°25'1 1.4
2015-Jan-13 14:33N 47°43' W 122°27'9 9.4
2015-Jan-13 13:33N 47°52' W 122°29'1110.2
2015-Jan-13 12:29N 48°01' W 122°38'9 9.5
2015-Jan-13 11:32N 48°09' W 122°44'9 8.9
2015-Jan-13 10:32N 48°12' W 122°57'9 9.5
2015-Jan-13 09:32N 48°12' W 123°11'10 9.6
2015-Jan-13 08:32N 48°13' W 123°26'9 9.4
2015-Jan-13 07:33N 48°14' W 123°39'10 9.7
2015-Jan-13 06:33N 48°14' W 123°54'1010.4
2015-Jan-13 05:33N 48°18' W 124°08'1010.3
2015-Jan-13 04:33N 48°22' W 124°23'9 8.9
2015-Jan-13 03:33N 48°26' W 124°35'8 8.4
2015-Jan-13 02:33N 48°29' W 124°46'8 8.0
2015-Jan-13 01:33N 48°29' W 124°59'9 8.4
2015-Jan-13 00:29N 48°28' W 125°12'8 8.5
2015-Jan-12 23:32N 48°28' W 125°24'10 8.4
2015-Jan-12 22:24N 48°27' W 125°38'7 8.4
2015-Jan-12 21:33N 48°26' W 125°49'12 8.9
2015-Jan-12 20:12N 48°25' W 126°07'  

Dump ship's entire track history